Time;durP1;ratioP1;P1;durP2;ratioP2;P2;SDS_P1;SDS_P2;PMS_P1;PMS_P2;Temp;Humidity;BMP_temperature;BMP_pressure;BME280_temperature;BME280_humidity;BME280_pressure;Samples;Min_cycle;Max_cycle;Signal;HPM_P1;HPM_P2
2022/06/05 00:03:17;;;;;;;6.40;5.80;;;20.10;99.90;;;;;;10466066;28;20224;-70
2022/06/05 00:08:25;;;;;;;7.33;6.53;;;20.10;99.90;;;;;;10471125;28;20226;-70
2022/06/05 00:13:49;;;;;;;6.67;5.90;;;20.00;99.90;;;;;;10475564;28;20235;-69
2022/06/05 00:18:51;;;;;;;6.37;5.87;;;19.90;99.90;;;;;;10464719;28;20222;-70
2022/06/05 00:23:52;;;;;;;6.20;5.70;;;19.80;99.90;;;;;;10473551;28;20227;-70
2022/06/05 00:29:02;;;;;;;6.33;5.73;;;19.70;99.90;;;;;;10483208;28;20249;-69
2022/06/05 00:34:02;;;;;;;6.00;5.40;;;19.50;99.90;;;;;;10475193;28;20222;-70
2022/06/05 00:39:17;;;;;;;6.27;5.67;;;19.40;99.90;;;;;;10476389;28;20217;-70
2022/06/05 00:44:30;;;;;;;7.10;6.50;;;19.30;99.90;;;;;;10471579;28;20702;-69
2022/06/05 00:49:44;;;;;;;6.67;6.07;;;19.20;99.90;;;;;;10466268;28;20309;-70
2022/06/05 00:54:48;;;;;;;6.13;5.63;;;19.20;99.90;;;;;;10476606;28;20771;-70
2022/06/05 00:59:51;;;;;;;6.23;5.73;;;19.10;99.90;;;;;;10463213;28;20222;-71
2022/06/05 01:04:52;;;;;;;7.80;5.83;;;19.10;99.90;;;;;;10468947;28;20757;-69
2022/06/05 01:09:54;;;;;;;7.77;7.07;;;19.10;99.90;;;;;;10468951;28;20230;-70
2022/06/05 01:15:19;;;;;;;9.13;7.13;;;19.30;99.90;;;;;;10477629;28;20232;-69
2022/06/05 01:20:35;;;;;;;9.40;8.50;;;19.30;99.90;;;;;;10476594;28;20317;-69
2022/06/05 01:25:47;;;;;;;7.47;6.70;;;19.30;99.90;;;;;;10473491;28;20218;-70
2022/06/05 01:30:58;;;;;;;8.10;6.63;;;19.30;99.90;;;;;;10469558;28;21009;-70
2022/06/05 01:36:23;;;;;;;8.70;7.03;;;19.30;99.90;;;;;;10467530;28;20233;-70
2022/06/05 01:41:32;;;;;;;8.83;7.90;;;19.30;99.90;;;;;;10487284;28;20219;-70
2022/06/05 01:46:36;;;;;;;12.47;8.47;;;19.20;99.90;;;;;;10472371;28;20261;-69
2022/06/05 01:51:48;;;;;;;8.90;7.83;;;19.20;99.90;;;;;;10463895;28;20667;-70
2022/06/05 01:56:54;;;;;;;7.67;6.97;;;19.10;99.90;;;;;;10467767;28;20705;-70
2022/06/05 02:01:57;;;;;;;7.23;6.63;;;19.10;99.90;;;;;;10458987;28;20223;-70
2022/06/05 02:07:09;;;;;;;7.10;6.50;;;19.00;99.90;;;;;;10470157;28;20234;-70
2022/06/05 02:12:10;;;;;;;7.33;6.63;;;19.00;99.90;;;;;;10461038;28;20845;-70
2022/06/05 02:17:12;;;;;;;7.10;6.43;;;19.00;99.90;;;;;;10470123;28;20310;-69
2022/06/05 02:22:20;;;;;;;7.40;6.80;;;19.00;99.90;;;;;;10475898;28;20253;-70
2022/06/05 02:27:23;;;;;;;6.90;6.30;;;19.00;99.90;;;;;;10469896;28;20599;-70
2022/06/05 02:32:31;;;;;;;7.57;6.27;;;19.10;99.90;;;;;;10477303;28;20218;-69
2022/06/05 02:38:11;;;;;;;6.83;6.13;;;19.00;99.90;;;;;;10464301;28;20221;-69
2022/06/05 02:43:16;;;;;;;6.67;6.13;;;19.00;99.90;;;;;;10469854;28;20218;-69
2022/06/05 02:48:28;;;;;;;7.00;6.20;;;19.00;99.90;;;;;;10474425;28;20229;-69
2022/06/05 02:53:28;;;;;;;6.37;5.77;;;18.90;99.90;;;;;;10451930;28;20230;-70
2022/06/05 02:58:29;;;;;;;5.83;5.33;;;18.90;99.90;;;;;;10467732;28;20248;-69
2022/06/05 03:03:30;;;;;;;7.50;6.00;;;18.80;99.90;;;;;;10460897;28;20230;-70
2022/06/05 03:08:31;;;;;;;6.50;6.00;;;18.80;99.90;;;;;;10474480;28;20276;-70
2022/06/05 03:13:32;;;;;;;6.53;5.93;;;18.80;99.90;;;;;;10464430;28;20824;-68
2022/06/05 03:18:32;;;;;;;7.23;6.17;;;18.80;99.90;;;;;;10476356;28;20308;-69
2022/06/05 03:23:33;;;;;;;6.47;5.30;;;18.80;99.90;;;;;;10475045;28;20227;-69
2022/06/05 03:28:34;;;;;;;6.40;5.83;;;18.80;99.90;;;;;;10467608;28;20294;-69
2022/06/05 03:33:37;;;;;;;7.13;5.77;;;18.80;99.90;;;;;;10479312;28;20240;-69
2022/06/05 03:38:38;;;;;;;6.40;5.87;;;18.80;99.90;;;;;;10471226;28;20237;-69
2022/06/05 03:43:39;;;;;;;6.40;5.90;;;18.70;99.90;;;;;;10466591;28;20804;-69
2022/06/05 03:48:40;;;;;;;6.17;5.57;;;18.80;99.90;;;;;;10466763;28;20259;-70
2022/06/05 03:53:41;;;;;;;6.50;5.90;;;18.80;99.90;;;;;;10470890;28;20307;-70
2022/06/05 03:58:41;;;;;;;9.50;6.70;;;18.80;99.90;;;;;;10472345;28;20267;-69
2022/06/05 04:03:43;;;;;;;6.80;6.30;;;18.90;99.90;;;;;;10476581;28;20708;-70
2022/06/05 04:08:44;;;;;;;7.30;5.70;;;18.90;99.90;;;;;;10467179;28;20314;-69
2022/06/05 04:13:44;;;;;;;5.93;5.43;;;18.90;99.90;;;;;;10477951;28;20309;-69
2022/06/05 04:18:48;;;;;;;5.53;5.13;;;19.00;99.90;;;;;;10475006;28;20226;-70
2022/06/05 04:23:50;;;;;;;5.93;5.13;;;19.20;99.90;;;;;;10476427;28;20222;-70
2022/06/05 04:28:53;;;;;;;6.07;5.50;;;19.30;99.90;;;;;;10477335;28;20344;-70
2022/06/05 04:33:56;;;;;;;5.67;5.17;;;19.30;99.90;;;;;;10489328;28;20349;-69
2022/06/05 04:38:57;;;;;;;7.43;5.20;;;19.40;99.90;;;;;;10474026;28;20214;-70
2022/06/05 04:43:58;;;;;;;5.70;5.23;;;19.40;99.90;;;;;;10476968;28;20313;-69
2022/06/05 04:48:59;;;;;;;5.67;5.07;;;19.40;99.90;;;;;;10473278;28;20245;-69
2022/06/05 04:54:01;;;;;;;5.80;5.30;;;19.50;99.90;;;;;;10476846;28;20219;-68
2022/06/05 04:59:03;;;;;;;4.97;4.53;;;19.60;99.90;;;;;;10460509;28;20588;-69
2022/06/05 05:04:08;;;;;;;7.13;5.60;;;19.60;99.90;;;;;;10481992;28;20228;-69
2022/06/05 05:09:09;;;;;;;5.80;5.20;;;19.60;99.90;;;;;;10471316;28;20215;-69
2022/06/05 05:14:11;;;;;;;7.00;6.30;;;19.70;99.90;;;;;;10470484;28;20314;-68
2022/06/05 05:19:11;;;;;;;6.07;5.57;;;19.80;99.90;;;;;;10477553;28;20764;-69
2022/06/05 05:24:12;;;;;;;6.40;5.90;;;19.80;99.90;;;;;;10477611;28;20269;-69
2022/06/05 05:29:13;;;;;;;6.60;6.00;;;19.80;99.90;;;;;;10488583;28;20247;-69
2022/06/05 05:34:15;;;;;;;6.77;6.17;;;19.80;99.90;;;;;;10469006;28;20303;-68
2022/06/05 05:44:42;;;;;;;7.10;6.40;;;19.70;99.90;;;;;;10456611;28;20643;-69
2022/06/05 05:49:44;;;;;;;8.20;7.40;;;19.60;99.90;;;;;;10467688;28;20220;-70
2022/06/05 05:54:44;;;;;;;8.93;8.13;;;19.50;99.90;;;;;;10476996;28;20302;-70
2022/06/05 05:59:46;;;;;;;8.73;7.83;;;19.50;99.90;;;;;;10466704;28;20305;-70
2022/06/05 06:04:47;;;;;;;8.50;7.70;;;19.40;99.90;;;;;;10477061;28;20226;-69
2022/06/05 06:09:48;;;;;;;8.10;7.30;;;19.40;99.90;;;;;;10464664;28;20224;-69
2022/06/05 06:14:48;;;;;;;9.03;8.20;;;19.30;99.90;;;;;;10474827;28;20215;-70
2022/06/05 06:19:49;;;;;;;8.30;7.50;;;19.20;99.90;;;;;;10464207;28;20220;-70
2022/06/05 06:24:50;;;;;;;8.40;7.60;;;18.90;99.90;;;;;;10470507;28;20230;-69
2022/06/05 06:29:52;;;;;;;7.50;6.90;;;18.80;99.90;;;;;;10477961;28;20228;-70
2022/06/05 06:34:52;;;;;;;7.47;6.80;;;18.80;99.90;;;;;;10468846;28;20321;-70
2022/06/05 06:39:54;;;;;;;6.87;6.10;;;18.90;99.90;;;;;;10465521;28;20260;-68
2022/06/05 06:44:55;;;;;;;8.00;7.30;;;19.00;99.90;;;;;;10468301;28;20702;-69
2022/06/05 06:49:56;;;;;;;7.70;7.07;;;19.00;99.90;;;;;;10466343;28;20234;-69
2022/06/05 06:54:56;;;;;;;7.07;6.47;;;19.00;99.90;;;;;;10465190;28;20216;-70
2022/06/05 06:59:57;;;;;;;7.47;6.60;;;19.10;99.90;;;;;;10467936;28;20246;-68
2022/06/05 07:04:58;;;;;;;7.30;6.53;;;19.10;99.90;;;;;;10483737;28;20229;-68
2022/06/05 07:09:58;;;;;;;7.90;7.10;;;19.10;99.90;;;;;;10467827;28;20226;-69
2022/06/05 07:14:59;;;;;;;7.30;6.70;;;19.30;99.90;;;;;;10486281;28;20207;-70
2022/06/05 07:19:59;;;;;;;6.73;6.13;;;19.90;99.90;;;;;;10467220;28;20219;-69
2022/06/05 07:25:01;;;;;;;7.17;6.50;;;20.30;99.90;;;;;;10471316;28;20277;-69
2022/06/05 07:30:02;;;;;;;6.83;6.07;;;20.60;99.90;;;;;;10469205;28;20224;-70
2022/06/05 07:35:06;;;;;;;6.63;6.03;;;21.10;99.90;;;;;;10470487;28;20326;-69
2022/06/05 07:40:08;;;;;;;6.40;5.60;;;21.40;99.90;;;;;;10459259;28;20273;-69
2022/06/05 07:45:12;;;;;;;6.50;5.90;;;21.60;99.90;;;;;;10473181;28;20187;-69
2022/06/05 07:50:14;;;;;;;6.30;5.70;;;21.40;99.90;;;;;;10465178;28;20200;-70
2022/06/05 07:55:14;;;;;;;5.67;5.27;;;21.10;99.90;;;;;;10467511;28;20685;-70
2022/06/05 08:00:15;;;;;;;6.03;5.53;;;20.90;99.90;;;;;;10466974;28;20211;-69
2022/06/05 08:05:16;;;;;;;6.43;5.87;;;20.70;99.90;;;;;;10475020;28;20197;-70
2022/06/05 08:10:16;;;;;;;6.33;5.73;;;20.30;99.90;;;;;;10463280;28;20668;-70
2022/06/05 08:15:17;;;;;;;6.50;5.67;;;20.40;99.90;;;;;;10467959;28;20180;-69
2022/06/05 08:20:19;;;;;;;6.37;5.77;;;20.40;99.90;;;;;;10463124;28;20744;-70
2022/06/05 08:25:20;;;;;;;6.10;5.60;;;20.40;99.90;;;;;;10473104;28;20297;-70
2022/06/05 08:30:20;;;;;;;6.53;6.00;;;20.40;99.90;;;;;;10462400;28;20214;-70
2022/06/05 08:35:21;;;;;;;7.23;6.10;;;20.50;99.90;;;;;;10465835;28;20270;-70
2022/06/05 08:46:12;;;;;;;7.83;6.30;;;20.50;99.90;;;;;;10465686;28;20216;-70
2022/06/05 08:52:03;;;;;;;6.90;6.20;;;20.70;99.90;;;;;;10475097;28;20238;-71
2022/06/05 08:57:15;;;;;;;8.93;7.10;;;21.00;99.90;;;;;;10417643;28;20300;-69
2022/06/05 09:02:26;;;;;;;7.40;6.67;;;21.10;99.90;;;;;;10470526;28;20308;-68
2022/06/05 09:07:33;;;;;;;8.00;7.20;;;21.30;99.90;;;;;;10474421;28;20222;-69
2022/06/05 09:12:59;;;;;;;7.40;6.80;;;21.20;99.90;;;;;;10465353;28;20220;-69
2022/06/05 09:18:01;;;;;;;7.37;6.60;;;21.10;99.90;;;;;;10475974;28;20230;-69
2022/06/05 09:23:09;;;;;;;6.77;6.27;;;21.20;99.90;;;;;;10475136;28;20251;-69
2022/06/05 09:28:35;;;;;;;6.67;6.07;;;21.40;99.90;;;;;;10459396;28;20261;-70
2022/06/05 09:33:39;;;;;;;6.60;6.00;;;21.80;99.90;;;;;;10470110;28;20211;-70
2022/06/05 09:39:05;;;;;;;7.47;6.33;;;22.30;99.90;;;;;;10474776;28;20235;-70
2022/06/05 09:44:41;;;;;;;6.57;5.97;;;22.60;99.90;;;;;;10470285;28;20219;-69
2022/06/05 09:49:46;;;;;;;5.93;5.43;;;22.70;99.90;;;;;;10443723;28;20306;-69
2022/06/05 09:55:17;;;;;;;6.77;5.83;;;23.30;99.90;;;;;;10467382;28;20220;-69
2022/06/05 10:00:38;;;;;;;6.13;5.63;;;23.60;99.90;;;;;;10469153;28;20247;-70
2022/06/05 10:05:45;;;;;;;5.73;5.00;;;23.90;99.90;;;;;;10460846;28;20943;-70
2022/06/05 10:10:48;;;;;;;5.67;5.17;;;25.70;99.90;;;;;;10476368;28;20958;-68
2022/06/05 10:16:03;;;;;;;5.57;5.07;;;27.40;99.90;;;;;;10478305;28;20223;-70
2022/06/05 10:21:10;;;;;;;5.30;4.80;;;28.40;99.90;;;;;;10462871;28;20595;-69
2022/06/05 10:26:29;;;;;;;5.13;4.67;;;28.90;98.90;;;;;;10475660;28;20304;-70
2022/06/05 10:31:32;;;;;;;5.53;4.90;;;28.30;98.50;;;;;;10460325;28;20373;-70
2022/06/05 10:36:46;;;;;;;4.80;4.40;;;28.70;96.20;;;;;;10464432;28;20916;-71
2022/06/05 10:42:15;;;;;;;5.70;5.20;;;30.20;93.60;;;;;;10474028;28;20219;-69
2022/06/05 10:47:53;;;;;;;4.63;4.17;;;30.10;91.30;;;;;;10466223;28;20235;-70
2022/06/05 10:53:12;;;;;;;5.37;4.70;;;32.00;83.00;;;;;;10461915;28;20214;-71
2022/06/05 10:58:41;;;;;;;5.67;5.00;;;32.20;75.30;;;;;;10462000;28;20304;-72
2022/06/05 11:03:48;;;;;;;6.20;5.60;;;30.90;77.10;;;;;;10447056;28;20216;-71
2022/06/05 11:08:57;;;;;;;7.17;5.47;;;28.10;87.30;;;;;;10465093;28;20649;-72
2022/06/05 11:14:24;;;;;;;5.53;5.03;;;27.10;91.60;;;;;;10464092;28;20303;-70
2022/06/05 11:19:41;;;;;;;5.90;4.60;;;27.20;92.50;;;;;;10471402;28;20222;-70
2022/06/05 11:24:51;;;;;;;4.03;3.73;;;27.50;92.50;;;;;;10467239;28;20565;-70
2022/06/05 11:30:29;;;;;;;4.77;4.30;;;27.70;92.60;;;;;;10468564;28;20229;-70
2022/06/05 11:35:35;;;;;;;6.53;4.80;;;28.10;93.40;;;;;;10461155;28;20222;-71
2022/06/05 11:40:42;;;;;;;8.97;4.73;;;29.00;90.60;;;;;;10460154;28;20562;-70
2022/06/05 11:45:54;;;;;;;6.83;4.83;;;29.60;89.20;;;;;;10463100;28;20255;-70
2022/06/05 11:51:21;;;;;;;4.83;4.43;;;29.10;90.00;;;;;;10461682;28;20241;-71
2022/06/05 11:56:31;;;;;;;6.50;5.20;;;28.30;91.10;;;;;;10466507;28;20225;-70
2022/06/05 12:01:37;;;;;;;5.70;5.10;;;27.80;91.70;;;;;;10461083;28;20310;-70
2022/06/05 12:06:42;;;;;;;5.63;4.30;;;27.10;93.00;;;;;;10458527;28;20230;-70
2022/06/05 12:12:00;;;;;;;5.43;4.93;;;26.40;94.80;;;;;;10468808;28;20327;-69
2022/06/05 12:17:33;;;;;;;6.17;5.63;;;25.90;96.50;;;;;;10456508;28;20714;-70
2022/06/05 12:22:43;;;;;;;6.17;5.67;;;25.30;98.00;;;;;;10451131;28;20275;-69
2022/06/05 12:27:49;;;;;;;6.03;5.30;;;24.80;99.90;;;;;;10479668;28;20240;-69
2022/06/05 12:33:15;;;;;;;6.20;5.60;;;24.30;99.90;;;;;;10477693;28;20231;-70
2022/06/05 12:38:18;;;;;;;6.30;5.70;;;24.00;99.90;;;;;;10481810;28;20629;-69
2022/06/05 12:43:25;;;;;;;6.90;6.30;;;23.80;99.90;;;;;;10473841;28;20216;-69
2022/06/05 12:48:29;;;;;;;7.23;6.50;;;23.60;99.90;;;;;;10464229;28;20644;-69
2022/06/05 12:54:13;;;;;;;10.23;9.33;;;23.40;99.90;;;;;;10472764;28;20221;-70
2022/06/05 12:59:19;;;;;;;7.70;6.90;;;23.20;99.90;;;;;;10374342;28;20211;-70
2022/06/05 13:04:29;;;;;;;8.17;7.47;;;23.50;99.90;;;;;;10471779;28;20269;-70
2022/06/05 13:09:39;;;;;;;9.20;8.30;;;24.20;99.90;;;;;;10464656;28;20701;-69
2022/06/05 13:15:26;;;;;;;6.20;5.70;;;25.30;99.90;;;;;;10469677;28;20225;-70
2022/06/05 13:21:01;;;;;;;9.33;8.03;;;26.30;99.90;;;;;;10438571;28;20212;-70
2022/06/05 13:26:39;;;;;;;9.40;7.63;;;27.10;99.90;;;;;;10467415;28;20208;-70
2022/06/05 13:32:03;;;;;;;9.97;9.07;;;27.50;99.90;;;;;;10463327;28;20347;-69
2022/06/05 13:37:34;;;;;;;8.27;7.57;;;27.30;99.90;;;;;;10476514;28;20291;-69
2022/06/05 13:42:38;;;;;;;8.53;7.83;;;27.00;99.90;;;;;;10468634;28;20220;-69
2022/06/05 13:47:46;;;;;;;7.20;6.60;;;26.70;99.90;;;;;;10479077;28;20224;-70
2022/06/05 13:52:51;;;;;;;9.27;8.37;;;26.70;99.90;;;;;;10471918;28;20250;-69
2022/06/05 13:58:10;;;;;;;10.33;8.30;;;26.40;99.90;;;;;;10470507;28;20245;-70
2022/06/05 14:03:15;;;;;;;12.20;7.13;;;26.20;99.90;;;;;;10475561;28;20696;-69
2022/06/05 14:08:36;;;;;;;8.10;6.40;;;26.40;99.90;;;;;;10470639;28;20274;-70
2022/06/05 14:13:42;;;;;;;6.63;6.00;;;26.60;99.90;;;;;;10457453;28;20274;-69
2022/06/05 14:18:55;;;;;;;5.93;5.33;;;26.60;99.90;;;;;;10470840;28;20222;-69
2022/06/05 14:23:56;;;;;;;7.07;6.47;;;27.10;99.90;;;;;;10466763;28;20220;-69
2022/06/05 14:28:58;;;;;;;9.37;6.33;;;27.20;99.90;;;;;;10472234;28;20319;-70
2022/06/05 14:34:02;;;;;;;6.13;5.57;;;27.10;99.90;;;;;;10479175;28;20218;-70
2022/06/05 14:39:11;;;;;;;6.47;5.60;;;26.90;99.90;;;;;;10470706;28;20242;-70
2022/06/05 14:44:34;;;;;;;5.53;4.57;;;26.10;99.90;;;;;;10469398;28;20283;-71
2022/06/05 14:49:40;;;;;;;5.27;4.83;;;25.70;99.90;;;;;;10461494;28;20230;-70
2022/06/05 15:00:16;;;;;;;16.50;3.53;;;25.20;99.90;;;;;;10473586;28;20215;-69
2022/06/05 15:05:27;;;;;;;11.90;4.00;;;21.90;99.90;;;;;;10459624;28;20208;-69
2022/06/05 15:10:47;;;;;;;45.73;5.90;;;19.40;99.90;;;;;;10462136;28;20604;-69
2022/06/05 15:16:09;;;;;;;8.80;2.90;;;18.40;99.90;;;;;;10454146;28;20227;-69
2022/06/05 15:21:21;;;;;;;13.50;5.50;;;18.30;99.90;;;;;;10460992;28;20228;-68
2022/06/05 15:26:27;;;;;;;4.93;2.50;;;18.20;99.90;;;;;;10473027;28;20224;-69
2022/06/05 15:31:39;;;;;;;12.13;5.27;;;17.90;99.90;;;;;;10492149;28;20228;-70
2022/06/05 15:37:07;;;;;;;11.83;6.00;;;17.80;99.90;;;;;;10465092;28;20229;-70
2022/06/05 15:42:34;;;;;;;16.40;10.53;;;18.30;99.90;;;;;;10485344;28;20307;-69
2022/06/05 15:47:56;;;;;;;9.53;6.83;;;18.80;99.90;;;;;;10459082;28;20249;-69
2022/06/05 15:53:16;;;;;;;11.83;7.73;;;19.10;99.90;;;;;;10463053;28;20233;-69
2022/06/05 15:58:21;;;;;;;7.63;4.53;;;19.40;99.90;;;;;;10495655;28;20232;-70
2022/06/05 16:03:41;;;;;;;6.00;4.13;;;19.50;99.90;;;;;;10482949;28;20560;-68
2022/06/05 16:08:51;;;;;;;7.97;4.77;;;19.40;99.90;;;;;;10476007;28;20442;-69
2022/06/05 16:14:27;;;;;;;15.90;7.60;;;19.40;99.90;;;;;;10474009;28;20279;-69
2022/06/05 16:19:38;;;;;;;12.47;6.77;;;19.60;99.90;;;;;;10463482;28;20226;-70
2022/06/05 16:25:21;;;;;;;13.47;7.97;;;20.00;99.90;;;;;;10459336;28;20253;-67
2022/06/05 16:30:43;;;;;;;14.60;8.97;;;20.20;99.90;;;;;;10475906;28;20218;-69
2022/06/05 16:41:08;;;;;;;10.30;6.33;;;20.60;99.90;;;;;;10473500;28;20321;-67
2022/06/05 16:46:13;;;;;;;8.13;5.70;;;20.80;99.90;;;;;;10466728;28;20223;-67
2022/06/05 16:51:14;;;;;;;5.47;4.03;;;21.00;99.90;;;;;;10464436;28;20806;-67
2022/06/05 16:56:21;;;;;;;6.17;3.10;;;21.10;99.90;;;;;;10480194;28;20229;-70
2022/06/05 17:01:29;;;;;;;5.67;2.93;;;21.00;99.90;;;;;;10476830;28;21039;-69
2022/06/05 17:06:48;;;;;;;3.10;2.70;;;20.90;99.90;;;;;;10473273;28;20223;-70
2022/06/05 17:12:12;;;;;;;3.00;2.73;;;21.00;99.90;;;;;;10463477;28;20248;-69
2022/06/05 17:17:27;;;;;;;4.03;2.83;;;21.10;99.90;;;;;;10444225;28;20793;-69
2022/06/05 17:22:38;;;;;;;3.43;2.53;;;21.00;99.90;;;;;;10479597;28;20575;-69
2022/06/05 17:28:00;;;;;;;3.97;2.40;;;21.10;99.90;;;;;;10465727;28;20733;-69
2022/06/05 17:33:08;;;;;;;3.60;2.20;;;21.00;99.90;;;;;;10477751;28;20227;-69
2022/06/05 17:38:46;;;;;;;4.37;2.80;;;21.00;99.90;;;;;;10465299;28;20237;-69
2022/06/05 17:44:11;;;;;;;3.00;2.23;;;20.90;99.90;;;;;;10476077;28;20234;-69
2022/06/05 17:49:31;;;;;;;3.20;2.50;;;20.80;99.90;;;;;;10477948;28;20222;-69
2022/06/05 17:54:43;;;;;;;2.43;2.23;;;20.60;99.90;;;;;;10459659;28;20294;-69
2022/06/05 17:59:46;;;;;;;4.17;2.50;;;20.60;99.90;;;;;;10477286;28;20597;-69
2022/06/05 18:05:02;;;;;;;5.43;2.50;;;20.50;99.90;;;;;;10473265;28;20216;-69
2022/06/05 18:10:05;;;;;;;2.23;1.60;;;20.30;99.90;;;;;;10476232;28;20258;-69
2022/06/05 18:15:09;;;;;;;2.57;1.40;;;20.00;99.90;;;;;;10464252;28;20735;-69
2022/06/05 18:20:19;;;;;;;10.57;1.47;;;20.10;99.90;;;;;;10471323;28;20184;-70
2022/06/05 18:25:55;;;;;;;5.67;1.23;;;20.40;99.90;;;;;;10479551;28;20191;-70
2022/06/05 18:31:23;;;;;;;4.90;1.67;;;20.70;99.90;;;;;;10468331;28;20639;-68
2022/06/05 18:41:59;;;;;;;2.73;0.80;;;20.80;99.90;;;;;;10459631;28;20227;-70
2022/06/05 18:47:05;;;;;;;2.30;1.30;;;20.60;99.90;;;;;;10470008;28;20231;-69
2022/06/05 18:52:26;;;;;;;2.93;1.10;;;20.50;99.90;;;;;;10470389;28;20276;-69
2022/06/05 18:57:33;;;;;;;2.37;1.00;;;20.30;99.90;;;;;;10477149;28;20228;-69
2022/06/05 19:02:55;;;;;;;1.67;0.87;;;20.00;99.90;;;;;;10459755;28;20226;-70
2022/06/05 19:07:56;;;;;;;3.27;0.90;;;19.80;99.90;;;;;;10462580;28;20716;-69
2022/06/05 19:13:47;;;;;;;1.47;1.10;;;19.60;99.90;;;;;;10471918;28;20221;-69
2022/06/05 19:19:00;;;;;;;2.93;1.17;;;19.40;99.90;;;;;;10425925;28;20230;-69
2022/06/05 19:24:06;;;;;;;3.20;1.03;;;19.40;99.90;;;;;;10471542;28;20280;-69
2022/06/05 19:29:17;;;;;;;2.20;0.80;;;19.20;99.90;;;;;;10468964;28;20696;-68
2022/06/05 19:34:21;;;;;;;1.33;1.20;;;19.10;99.90;;;;;;10476733;28;20272;-70
2022/06/05 19:39:38;;;;;;;4.53;1.27;;;18.90;99.90;;;;;;10473806;28;20614;-69
2022/06/05 19:44:39;;;;;;;1.40;1.20;;;18.80;99.90;;;;;;10464418;28;20303;-69
2022/06/05 19:49:48;;;;;;;1.27;1.17;;;18.70;99.90;;;;;;10460949;28;20650;-72
2022/06/05 19:54:49;;;;;;;3.30;1.57;;;18.50;99.90;;;;;;10471210;28;20217;-70
2022/06/05 20:00:22;;;;;;;4.60;1.27;;;18.30;99.90;;;;;;10463463;28;20237;-70
2022/06/05 20:05:36;;;;;;;2.23;0.80;;;18.30;99.90;;;;;;10462322;28;20249;-69
2022/06/05 20:10:44;;;;;;;2.63;1.10;;;18.20;99.90;;;;;;10456865;28;20249;-70
2022/06/05 20:15:45;;;;;;;4.13;1.23;;;18.30;99.90;;;;;;10492873;28;20213;-69
2022/06/05 20:20:50;;;;;;;2.97;1.10;;;18.30;99.90;;;;;;10473304;28;20221;-70
2022/06/05 20:26:00;;;;;;;1.67;0.87;;;18.40;99.90;;;;;;10469568;28;20226;-71
2022/06/05 20:31:19;;;;;;;1.70;1.30;;;18.30;99.90;;;;;;10469295;28;20688;-71
2022/06/05 20:36:20;;;;;;;3.80;1.23;;;18.30;99.90;;;;;;10478000;28;20213;-69
2022/06/05 20:41:29;;;;;;;2.97;1.30;;;18.50;99.90;;;;;;10470388;28;20692;-68
2022/06/05 20:46:34;;;;;;;3.73;1.70;;;18.70;99.90;;;;;;10469478;28;20217;-68
2022/06/05 20:51:35;;;;;;;1.97;1.77;;;18.80;99.90;;;;;;10468471;28;20236;-68
2022/06/05 20:56:59;;;;;;;3.80;1.60;;;18.60;99.90;;;;;;10476224;28;20274;-68
2022/06/05 21:02:03;;;;;;;1.87;1.50;;;18.40;99.90;;;;;;10480748;28;20703;-71
2022/06/05 21:07:12;;;;;;;2.60;1.40;;;18.30;99.90;;;;;;10480624;28;20218;-70
2022/06/05 21:17:35;;;;;;;4.03;1.90;;;18.20;99.90;;;;;;10469167;28;20331;-69
2022/06/05 21:22:39;;;;;;;1.60;1.50;;;18.20;99.90;;;;;;10481008;28;20236;-70
2022/06/05 21:27:46;;;;;;;1.93;1.33;;;18.10;99.90;;;;;;10468722;28;20852;-69
2022/06/05 21:33:09;;;;;;;4.20;1.50;;;18.10;99.90;;;;;;10473791;28;20226;-70
2022/06/05 21:38:15;;;;;;;5.03;1.50;;;18.20;99.90;;;;;;10478507;28;20224;-69
2022/06/05 21:43:22;;;;;;;2.03;1.50;;;18.30;99.90;;;;;;10459688;28;20654;-70
2022/06/05 21:48:25;;;;;;;1.63;1.53;;;18.40;99.90;;;;;;10472404;28;20226;-69
2022/06/05 21:53:35;;;;;;;2.13;1.73;;;18.50;99.90;;;;;;10473793;28;20560;-69
2022/06/05 21:58:36;;;;;;;1.73;1.50;;;18.40;99.90;;;;;;10464528;28;20228;-70
2022/06/05 22:03:38;;;;;;;2.90;1.70;;;18.40;99.90;;;;;;10466173;28;20225;-69
2022/06/05 22:08:39;;;;;;;1.70;1.53;;;18.50;99.90;;;;;;10472283;28;20693;-69
2022/06/05 22:13:40;;;;;;;1.47;1.37;;;18.40;99.90;;;;;;10471721;28;20229;-68
2022/06/05 22:18:40;;;;;;;1.80;1.40;;;18.40;99.90;;;;;;10463857;28;20260;-70
2022/06/05 22:23:45;;;;;;;1.80;1.47;;;18.20;99.90;;;;;;10477510;28;20310;-69
2022/06/05 22:28:46;;;;;;;3.70;1.83;;;18.10;99.90;;;;;;10471113;28;20644;-69
2022/06/05 22:33:47;;;;;;;2.83;2.40;;;18.10;99.90;;;;;;10476652;28;20244;-69
2022/06/05 22:38:50;;;;;;;3.73;2.43;;;18.10;99.90;;;;;;10477785;28;20225;-68
2022/06/05 22:43:55;;;;;;;5.03;2.07;;;18.10;99.90;;;;;;10475367;28;20224;-69
2022/06/05 22:49:02;;;;;;;6.10;2.33;;;18.10;99.90;;;;;;10473899;28;20235;-69
2022/06/05 22:54:04;;;;;;;2.20;2.00;;;18.20;99.90;;;;;;10466120;28;20228;-69
2022/06/05 22:59:04;;;;;;;2.53;2.33;;;18.20;99.90;;;;;;10472360;28;20269;-69
2022/06/05 23:04:05;;;;;;;2.30;1.67;;;18.20;99.90;;;;;;10467067;28;20252;-69
2022/06/05 23:09:07;;;;;;;6.00;2.03;;;18.20;99.90;;;;;;10477026;28;20966;-70
2022/06/05 23:14:08;;;;;;;2.10;1.90;;;18.20;99.90;;;;;;10464922;28;20756;-69
2022/06/05 23:24:28;;;;;;;2.03;1.50;;;18.30;99.90;;;;;;10483394;28;20230;-70
2022/06/05 23:29:28;;;;;;;2.93;1.50;;;18.30;99.90;;;;;;10469183;28;20226;-69
2022/06/05 23:34:31;;;;;;;4.10;2.10;;;18.30;99.90;;;;;;10468869;28;20226;-70
2022/06/05 23:39:32;;;;;;;2.10;1.90;;;18.30;99.90;;;;;;10461334;28;20309;-70
2022/06/05 23:44:33;;;;;;;2.90;1.77;;;18.30;99.90;;;;;;10469177;28;20282;-70
2022/06/05 23:49:34;;;;;;;5.43;2.03;;;18.30;99.90;;;;;;10461331;28;20250;-70
2022/06/05 23:54:35;;;;;;;7.73;2.50;;;18.20;99.90;;;;;;10468880;28;20248;-69
2022/06/05 23:59:37;;;;;;;3.57;2.40;;;18.10;99.90;;;;;;10468896;28;20220;-72
